Time;durP1;ratioP1;P1;durP2;ratioP2;P2;SDS_P1;SDS_P2;PMS_P1;PMS_P2;Temp;Humidity;BMP_temperature;BMP_pressure;BME280_temperature;BME280_humidity;BME280_pressure;Samples;Min_cycle;Max_cycle;Signal;HPM_P1;HPM_P2
2022/11/29 00:01:42;;;;;;;;;;;;;;;4.78;64.90;99688.97;4497501;31;35063;-86
2022/11/29 00:04:10;;;;;;;;;;;;;;;4.99;64.93;99681.31;4498957;31;33617;-86
2022/11/29 00:06:37;;;;;;;;;;;;;;;4.64;65.54;99684.91;4498838;31;34250;-89
2022/11/29 00:09:05;;;;;;;;;;;;;;;5.13;63.85;99687.06;4498435;31;35213;-86
2022/11/29 00:14:20;;;;;;;;;;;;;;;5.25;62.69;99677.28;4498794;31;34375;-86
2022/11/29 00:16:52;;;;;;;;;;;;;;;4.96;64.66;99675.16;4498515;31;34200;-88
2022/11/29 00:19:19;;;;;;;;;;;;;;;5.29;64.04;99663.75;4498509;31;34466;-89
2022/11/29 00:21:46;;;;;;;;;;;;;;;4.77;64.80;99671.81;4498565;31;34640;-86
2022/11/29 00:24:14;;;;;;;;;;;;;;;5.04;64.65;99661.84;4498729;31;34203;-87
2022/11/29 00:26:41;;;;;;;;;;;;;;;4.63;65.71;99662.62;4500123;31;33957;-89
2022/11/29 00:29:09;;;;;;;;;;;;;;;4.09;67.11;99661.88;4514120;31;34056;-89
2022/11/29 00:31:36;;;;;;;;;;;;;;;4.16;68.08;99663.91;4512997;31;34286;-87
2022/11/29 00:34:05;;;;;;;;;;;;;;;5.22;64.36;99651.44;4507031;31;33422;-87
2022/11/29 00:36:33;;;;;;;;;;;;;;;6.09;61.24;99651.53;4498464;31;33792;-87
2022/11/29 00:39:01;;;;;;;;;;;;;;;4.88;64.94;99659.41;4498534;31;34868;-87
2022/11/29 00:41:28;;;;;;;;;;;;;;;5.15;63.82;99654.56;4497037;31;34283;-88
2022/11/29 00:43:55;;;;;;;;;;;;;;;5.46;63.44;99653.31;4498438;31;33492;-88
2022/11/29 00:46:24;;;;;;;;;;;;;;;5.68;62.75;99655.00;4498269;31;35049;-88
2022/11/29 00:48:51;;;;;;;;;;;;;;;5.45;62.66;99656.66;4498350;31;34064;-90
2022/11/29 00:51:18;;;;;;;;;;;;;;;5.40;63.43;99651.34;4498044;31;34381;-88
2022/11/29 00:53:45;;;;;;;;;;;;;;;5.85;62.05;99652.31;4498305;31;33636;-90
2022/11/29 00:56:12;;;;;;;;;;;;;;;5.18;63.47;99652.13;4473042;31;786778;-88
2022/11/29 00:58:42;;;;;;;;;;;;;;;5.17;64.18;99650.37;4504532;31;34373;-86
2022/11/29 01:01:10;;;;;;;;;;;;;;;5.12;64.75;99650.19;4498450;31;34625;-87
2022/11/29 01:03:37;;;;;;;;;;;;;;;5.32;63.90;99643.31;4501553;31;34180;-90
2022/11/29 01:06:05;;;;;;;;;;;;;;;5.82;62.12;99651.31;4514211;31;33681;-88
2022/11/29 01:08:33;;;;;;;;;;;;;;;5.60;62.63;99639.28;4508675;31;33992;-86
2022/11/29 01:11:01;;;;;;;;;;;;;;;5.91;62.20;99645.63;4499172;31;34505;-89
2022/11/29 01:13:28;;;;;;;;;;;;;;;6.33;60.97;99647.31;4500329;31;33703;-86
2022/11/29 01:15:56;;;;;;;;;;;;;;;5.52;62.98;99643.25;4507995;31;34954;-86
2022/11/29 01:18:23;;;;;;;;;;;;;;;5.81;62.64;99640.13;4499835;31;34539;-87
2022/11/29 01:20:54;;;;;;;;;;;;;;;5.98;61.76;99642.50;4498666;31;35180;-90
2022/11/29 01:23:22;;;;;;;;;;;;;;;6.09;61.33;99636.06;4499976;31;33507;-90
2022/11/29 01:25:59;;;;;;;;;;;;;;;6.07;61.65;99641.19;4500390;31;33633;-88
2022/11/29 01:28:27;;;;;;;;;;;;;;;5.86;61.64;99643.75;4509626;31;34258;-90
2022/11/29 01:30:54;;;;;;;;;;;;;;;5.10;64.02;99638.09;4515278;31;34412;-87
2022/11/29 01:33:21;;;;;;;;;;;;;;;5.08;64.60;99640.59;4514485;31;34490;-89
2022/11/29 01:35:52;;;;;;;;;;;;;;;4.97;65.01;99646.12;4515436;31;34408;-87
2022/11/29 01:38:20;;;;;;;;;;;;;;;5.86;63.02;99630.03;4511624;31;35191;-89
2022/11/29 01:40:57;;;;;;;;;;;;;;;5.54;62.56;99629.63;4501676;31;34583;-87
2022/11/29 01:43:24;;;;;;;;;;;;;;;5.96;61.94;99634.75;4515239;31;33070;-86
2022/11/29 01:45:52;;;;;;;;;;;;;;;7.03;58.61;99618.00;4511126;31;33941;-87
2022/11/29 01:48:22;;;;;;;;;;;;;;;6.01;61.68;99632.34;4506208;31;35178;-87
2022/11/29 01:50:49;;;;;;;;;;;;;;;6.23;60.74;99623.75;4515009;31;34538;-90
2022/11/29 01:53:16;;;;;;;;;;;;;;;5.91;61.68;99632.75;4504840;31;33540;-87
2022/11/29 01:55:44;;;;;;;;;;;;;;;6.04;60.49;99627.31;4498574;31;34276;-87
2022/11/29 01:58:12;;;;;;;;;;;;;;;6.38;60.52;99623.44;4498586;31;35269;-89
2022/11/29 02:00:39;;;;;;;;;;;;;;;6.38;60.45;99628.56;4499335;31;34552;-88
2022/11/29 02:03:09;;;;;;;;;;;;;;;6.00;61.21;99628.03;4514662;31;34256;-89
2022/11/29 02:05:37;;;;;;;;;;;;;;;5.60;62.34;99634.13;4501730;31;34912;-87
2022/11/29 02:08:05;;;;;;;;;;;;;;;5.44;62.61;99632.66;4513276;31;35904;-88
2022/11/29 02:10:37;;;;;;;;;;;;;;;5.72;62.18;99634.66;4512752;31;34291;-89
2022/11/29 02:13:10;;;;;;;;;;;;;;;5.76;61.57;99633.94;4497610;31;34413;-89
2022/11/29 02:15:37;;;;;;;;;;;;;;;5.05;63.78;99637.91;4498236;31;34936;-88
2022/11/29 02:18:09;;;;;;;;;;;;;;;5.00;64.06;99643.66;4500360;31;34181;-87
2022/11/29 02:20:41;;;;;;;;;;;;;;;5.58;62.66;99635.78;4496824;31;35591;-87
2022/11/29 02:23:15;;;;;;;;;;;;;;;5.11;64.08;99639.84;4514265;31;33044;-89
2022/11/29 02:25:48;;;;;;;;;;;;;;;5.29;63.61;99640.59;4515572;31;34777;-92
2022/11/29 02:28:18;;;;;;;;;;;;;;;5.47;63.04;99640.50;4514198;31;35234;-89
2022/11/29 02:30:54;;;;;;;;;;;;;;;6.41;60.27;99639.88;4505697;31;34635;-88
2022/11/29 02:33:27;;;;;;;;;;;;;;;5.12;63.72;99644.19;4499414;31;33914;-89
2022/11/29 02:36:02;;;;;;;;;;;;;;;5.69;61.96;99642.22;4498296;31;34656;-91
2022/11/29 02:38:36;;;;;;;;;;;;;;;6.31;60.58;99654.09;4499610;31;35260;-90
2022/11/29 02:41:12;;;;;;;;;;;;;;;6.24;60.25;99651.22;4498507;31;34379;-87
2022/11/29 02:43:46;;;;;;;;;;;;;;;6.60;59.54;99644.00;4515175;31;31938;-87
2022/11/29 02:46:32;;;;;;;;;;;;;;;6.77;58.96;99648.03;4513092;31;34594;-87
2022/11/29 02:48:59;;;;;;;;;;;;;;;6.21;59.59;99652.00;4512087;31;34468;-91
2022/11/29 02:51:29;;;;;;;;;;;;;;;5.64;61.58;99651.44;4511324;31;34738;-87
2022/11/29 02:54:19;;;;;;;;;;;;;;;5.27;62.88;99642.25;4508119;31;34493;-91
2022/11/29 02:56:53;;;;;;;;;;;;;;;5.98;61.32;99643.37;4504313;31;35038;-87
2022/11/29 02:59:29;;;;;;;;;;;;;;;6.27;60.17;99641.06;4498298;31;33875;-87
2022/11/29 03:02:01;;;;;;;;;;;;;;;6.17;60.11;99647.53;4497901;31;34516;-88
2022/11/29 03:04:31;;;;;;;;;;;;;;;5.23;63.23;99640.38;4498123;31;33549;-86
2022/11/29 03:07:03;;;;;;;;;;;;;;;6.14;60.31;99643.97;4505143;31;33858;-86
2022/11/29 03:09:39;;;;;;;;;;;;;;;6.17;60.20;99644.97;4515162;31;34372;-86
2022/11/29 03:12:15;;;;;;;;;;;;;;;5.53;62.27;99642.41;4515053;31;35201;-86
2022/11/29 03:14:51;;;;;;;;;;;;;;;5.76;61.27;99649.38;4505542;31;33292;-91
2022/11/29 03:17:29;;;;;;;;;;;;;;;6.51;59.33;99641.94;4510891;31;34236;-86
2022/11/29 03:19:59;;;;;;;;;;;;;;;6.39;58.80;99646.66;4515156;31;34282;-87
2022/11/29 03:22:36;;;;;;;;;;;;;;;6.46;58.62;99648.63;4515251;31;34038;-88
2022/11/29 03:25:07;;;;;;;;;;;;;;;6.33;59.20;99652.47;4513935;31;34400;-91
2022/11/29 03:27:40;;;;;;;;;;;;;;;5.61;60.90;99646.19;4506478;31;34457;-90
2022/11/29 03:30:08;;;;;;;;;;;;;;;6.02;60.31;99645.28;4497599;31;34103;-87
2022/11/29 03:32:36;;;;;;;;;;;;;;;6.52;58.73;99651.44;4498001;31;34931;-87
2022/11/29 03:35:03;;;;;;;;;;;;;;;6.92;57.00;99641.69;4499380;31;34032;-89
2022/11/29 03:37:39;;;;;;;;;;;;;;;6.35;58.73;99655.09;4499197;31;34703;-87
2022/11/29 03:40:08;;;;;;;;;;;;;;;6.08;59.73;99654.94;4497690;31;34442;-88
2022/11/29 03:42:48;;;;;;;;;;;;;;;6.09;59.18;99651.53;4497708;31;35303;-88
2022/11/29 03:45:18;;;;;;;;;;;;;;;5.98;60.05;99652.81;4498964;31;33487;-87
2022/11/29 03:47:59;;;;;;;;;;;;;;;6.49;58.69;99656.47;4500340;31;34019;-85
2022/11/29 03:50:28;;;;;;;;;;;;;;;7.66;55.20;99656.22;4499968;31;33901;-86
2022/11/29 03:52:56;;;;;;;;;;;;;;;6.99;57.04;99656.53;4511902;31;34314;-88
2022/11/29 03:55:29;;;;;;;;;;;;;;;6.69;57.65;99657.19;4512564;31;34460;-90
2022/11/29 03:58:15;;;;;;;;;;;;;;;6.80;57.00;99660.16;4507365;31;34152;-86
2022/11/29 04:00:42;;;;;;;;;;;;;;;5.88;59.21;99666.13;4499644;31;34572;-89
2022/11/29 04:03:23;;;;;;;;;;;;;;;5.98;59.44;99660.53;4507765;31;35292;-87
2022/11/29 04:06:09;;;;;;;;;;;;;;;6.57;57.62;99667.06;4513664;31;33237;-87
2022/11/29 04:08:37;;;;;;;;;;;;;;;6.71;56.78;99670.16;4502258;31;34049;-87
2022/11/29 04:11:22;;;;;;;;;;;;;;;6.26;59.01;99673.66;4498665;31;35048;-89
2022/11/29 04:14:01;;;;;;;;;;;;;;;6.73;57.22;99683.94;4497485;31;35247;-89
2022/11/29 04:16:31;;;;;;;;;;;;;;;6.19;58.57;99671.66;4497332;31;34391;-87
2022/11/29 04:19:17;;;;;;;;;;;;;;;5.93;59.29;99675.78;4511932;31;34138;-85
2022/11/29 04:22:06;;;;;;;;;;;;;;;5.38;60.70;99673.56;4514410;31;34390;-90
2022/11/29 04:24:53;;;;;;;;;;;;;;;5.61;60.14;99669.34;4513355;31;34542;-89
2022/11/29 04:27:42;;;;;;;;;;;;;;;5.41;60.69;99672.78;4509177;31;33637;-85
2022/11/29 04:30:13;;;;;;;;;;;;;;;6.40;58.29;99683.56;4498158;31;34150;-90
2022/11/29 04:32:40;;;;;;;;;;;;;;;5.79;59.64;99675.19;4498463;31;35579;-89
2022/11/29 04:35:10;;;;;;;;;;;;;;;5.35;60.65;99674.28;4498421;31;33892;-89
2022/11/29 04:37:38;;;;;;;;;;;;;;;6.24;58.56;99682.13;4500200;31;33984;-86
2022/11/29 04:40:05;;;;;;;;;;;;;;;6.60;57.12;99674.03;4500219;31;33604;-86
2022/11/29 04:42:41;;;;;;;;;;;;;;;5.73;59.75;99676.69;4500283;31;33930;-88
2022/11/29 04:45:28;;;;;;;;;;;;;;;4.80;63.11;99686.47;4499175;31;34317;-86
2022/11/29 04:48:03;;;;;;;;;;;;;;;4.73;63.77;99690.44;4500593;31;33696;-89
2022/11/29 04:50:49;;;;;;;;;;;;;;;4.70;64.30;99684.28;4499005;31;35128;-90
2022/11/29 04:53:23;;;;;;;;;;;;;;;4.55;64.76;99689.66;4500175;31;34281;-87
2022/11/29 04:55:54;;;;;;;;;;;;;;;4.79;63.46;99700.12;4499107;31;35284;-90
2022/11/29 04:58:33;;;;;;;;;;;;;;;5.43;61.77;99694.31;4500702;31;33170;-89
2022/11/29 05:01:19;;;;;;;;;;;;;;;5.28;62.56;99700.56;4498809;31;33907;-88
2022/11/29 05:03:56;;;;;;;;;;;;;;;4.36;64.70;99704.22;4512020;31;34326;-85
2022/11/29 05:06:28;;;;;;;;;;;;;;;4.86;64.14;99708.19;4499371;31;35206;-91
2022/11/29 05:09:02;;;;;;;;;;;;;;;5.39;62.00;99700.12;4498845;31;34500;-91
2022/11/29 05:11:42;;;;;;;;;;;;;;;5.09;62.72;99711.75;4511871;31;34000;-89
2022/11/29 05:14:28;;;;;;;;;;;;;;;4.96;63.20;99711.13;4506779;31;34531;-91
2022/11/29 05:17:14;;;;;;;;;;;;;;;5.15;63.10;99718.81;4515179;31;34009;-88
2022/11/29 05:20:03;;;;;;;;;;;;;;;5.39;62.14;99710.44;4499824;31;33210;-87
2022/11/29 05:22:37;;;;;;;;;;;;;;;5.56;61.48;99705.16;4498843;31;34177;-88
2022/11/29 05:25:20;;;;;;;;;;;;;;;4.85;63.86;99719.28;4498568;31;34813;-90
2022/11/29 05:27:49;;;;;;;;;;;;;;;4.71;64.46;99720.34;4508445;31;33844;-90
2022/11/29 05:30:21;;;;;;;;;;;;;;;4.87;63.52;99712.50;4507356;31;33696;-90
2022/11/29 05:32:56;;;;;;;;;;;;;;;5.10;62.77;99713.50;4507000;31;34964;-88
2022/11/29 05:35:26;;;;;;;;;;;;;;;5.88;60.35;99715.88;4500438;31;35259;-86
2022/11/29 05:37:54;;;;;;;;;;;;;;;4.59;63.87;99715.53;4504791;31;34095;-89
2022/11/29 05:40:28;;;;;;;;;;;;;;;4.97;63.12;99718.94;4509454;31;34409;-85
2022/11/29 05:43:01;;;;;;;;;;;;;;;4.85;63.86;99716.72;4513150;31;34876;-86
2022/11/29 05:45:47;;;;;;;;;;;;;;;5.24;62.63;99714.09;4507221;31;35164;-87
2022/11/29 05:48:15;;;;;;;;;;;;;;;5.92;60.38;99715.22;4509977;31;34501;-88
2022/11/29 05:50:45;;;;;;;;;;;;;;;4.75;63.40;99732.50;4508798;31;33661;-86
2022/11/29 05:53:37;;;;;;;;;;;;;;;5.19;62.72;99723.31;4507889;31;35006;-89
2022/11/29 05:56:08;;;;;;;;;;;;;;;5.43;61.77;99720.91;4501346;31;34822;-87
2022/11/29 05:58:55;;;;;;;;;;;;;;;4.57;63.86;99729.97;4509321;31;35230;-87
2022/11/29 06:01:24;;;;;;;;;;;;;;;4.74;63.75;99733.31;4513679;31;33197;-87
2022/11/29 06:03:56;;;;;;;;;;;;;;;5.26;62.06;99732.16;4504255;31;34202;-87
2022/11/29 06:06:41;;;;;;;;;;;;;;;5.16;62.46;99733.47;4502634;31;34246;-88
2022/11/29 06:09:13;;;;;;;;;;;;;;;4.98;62.58;99732.66;4500052;31;35318;-87
2022/11/29 06:11:41;;;;;;;;;;;;;;;5.18;61.93;99730.94;4498062;31;32960;-88
2022/11/29 06:14:15;;;;;;;;;;;;;;;5.33;61.36;99732.47;4498394;31;34951;-88
2022/11/29 06:16:49;;;;;;;;;;;;;;;5.80;59.69;99725.88;4500146;31;35221;-89
2022/11/29 06:19:16;;;;;;;;;;;;;;;5.74;59.38;99740.16;4499504;31;35388;-89
2022/11/29 06:21:58;;;;;;;;;;;;;;;6.66;57.47;99747.25;4502007;31;34591;-88
2022/11/29 06:24:41;;;;;;;;;;;;;;;5.98;58.56;99743.75;4503338;31;35069;-88
2022/11/29 06:27:09;;;;;;;;;;;;;;;6.66;56.99;99742.09;4501540;31;34930;-86
2022/11/29 06:29:48;;;;;;;;;;;;;;;5.78;58.99;99758.34;4499592;31;35098;-87
2022/11/29 06:32:15;;;;;;;;;;;;;;;5.33;60.50;99745.31;4509422;31;33446;-87
2022/11/29 06:34:53;;;;;;;;;;;;;;;5.39;60.40;99747.28;4515462;31;34565;-87
2022/11/29 06:37:28;;;;;;;;;;;;;;;5.01;61.53;99750.78;4499172;31;34491;-87
2022/11/29 06:39:56;;;;;;;;;;;;;;;5.03;61.60;99762.00;4498210;31;35117;-86
2022/11/29 06:42:23;;;;;;;;;;;;;;;5.00;61.40;99756.72;4499463;31;33472;-86
2022/11/29 06:44:50;;;;;;;;;;;;;;;5.04;61.85;99762.06;4499229;31;34315;-84
2022/11/29 06:47:22;;;;;;;;;;;;;;;5.25;61.30;99763.81;4510890;31;35140;-88
2022/11/29 06:49:50;;;;;;;;;;;;;;;5.11;61.69;99766.69;4500251;31;35060;-85
2022/11/29 06:52:39;;;;;;;;;;;;;;;5.25;61.36;99766.38;4497685;31;34182;-87
2022/11/29 06:55:23;;;;;;;;;;;;;;;4.98;62.28;99766.94;4506178;31;34845;-86
2022/11/29 06:58:25;;;;;;;;;;;;;;;5.76;60.05;99770.31;4502662;31;34412;-86
2022/11/29 07:01:03;;;;;;;;;;;;;;;4.78;62.99;99765.16;4499908;31;34440;-87
2022/11/29 07:03:34;;;;;;;;;;;;;;;5.30;61.13;99770.03;4500479;31;34351;-86
2022/11/29 07:06:07;;;;;;;;;;;;;;;4.57;63.34;99770.19;4514535;31;34881;-86
2022/11/29 07:08:35;;;;;;;;;;;;;;;4.91;62.68;99767.47;4500812;31;33783;-87
2022/11/29 07:11:02;;;;;;;;;;;;;;;4.58;63.91;99766.81;4493930;31;33873;-87
2022/11/29 07:13:29;;;;;;;;;;;;;;;4.97;62.59;99777.16;4499251;31;33291;-87
2022/11/29 07:16:06;;;;;;;;;;;;;;;5.44;61.20;99765.47;4506529;31;34515;-86
2022/11/29 07:18:45;;;;;;;;;;;;;;;6.16;59.24;99769.38;4496490;31;34200;-86
2022/11/29 07:21:28;;;;;;;;;;;;;;;5.49;60.91;99774.25;4507855;31;34134;-86
2022/11/29 07:24:04;;;;;;;;;;;;;;;6.52;58.20;99766.50;4502349;31;33588;-85
2022/11/29 07:26:38;;;;;;;;;;;;;;;5.98;59.54;99763.47;4498166;31;33969;-84
2022/11/29 07:29:10;;;;;;;;;;;;;;;5.90;59.41;99775.13;4497194;31;33062;-86
2022/11/29 07:31:53;;;;;;;;;;;;;;;5.34;61.61;99775.38;4498021;31;34156;-86
2022/11/29 07:34:40;;;;;;;;;;;;;;;5.65;60.69;99771.53;4499055;31;33549;-85
2022/11/29 07:37:18;;;;;;;;;;;;;;;5.97;59.96;99764.28;4499107;31;34844;-86
2022/11/29 07:39:55;;;;;;;;;;;;;;;5.64;60.15;99774.91;4502960;31;34772;-85
2022/11/29 07:42:41;;;;;;;;;;;;;;;5.66;60.88;99777.56;4494036;31;34510;-86
2022/11/29 07:45:08;;;;;;;;;;;;;;;6.20;59.34;99772.94;4500539;31;34163;-86
2022/11/29 07:47:35;;;;;;;;;;;;;;;6.60;58.34;99772.81;4509761;31;34105;-85
2022/11/29 07:50:03;;;;;;;;;;;;;;;6.24;59.31;99772.25;4507905;31;34129;-86
2022/11/29 07:52:30;;;;;;;;;;;;;;;7.16;55.92;99775.72;4498823;31;34262;-85
2022/11/29 07:54:57;;;;;;;;;;;;;;;6.20;58.14;99775.50;4511689;31;33723;-87
2022/11/29 07:57:24;;;;;;;;;;;;;;;7.31;55.73;99773.69;4514099;31;35142;-88
2022/11/29 07:59:51;;;;;;;;;;;;;;;7.57;55.07;99775.47;4514189;31;33979;-85
2022/11/29 08:02:28;;;;;;;;;;;;;;;7.97;54.02;99771.66;4499281;31;34917;-87
2022/11/29 08:04:56;;;;;;;;;;;;;;;7.47;54.82;99769.97;4499810;31;34950;-86
2022/11/29 08:07:23;;;;;;;;;;;;;;;7.14;55.94;99774.78;4501016;31;34164;-88
2022/11/29 08:09:50;;;;;;;;;;;;;;;7.26;56.18;99781.25;4503270;31;35197;-85
2022/11/29 08:12:18;;;;;;;;;;;;;;;7.28;55.01;99779.63;4498595;31;34421;-86
2022/11/29 08:14:45;;;;;;;;;;;;;;;6.71;56.13;99778.38;4499739;31;33802;-86
2022/11/29 08:17:12;;;;;;;;;;;;;;;7.07;56.31;99779.72;4513253;31;34058;-84
2022/11/29 08:19:40;;;;;;;;;;;;;;;6.08;57.55;99778.47;4514320;31;34301;-85
2022/11/29 08:22:07;;;;;;;;;;;;;;;6.57;57.76;99780.41;4514624;31;34502;-83
2022/11/29 08:24:34;;;;;;;;;;;;;;;7.24;55.94;99775.19;4503663;31;33565;-87
2022/11/29 08:27:01;;;;;;;;;;;;;;;6.89;56.61;99778.16;4511546;31;34079;-86
2022/11/29 08:29:28;;;;;;;;;;;;;;;7.19;56.28;99768.97;4513829;31;34176;-85
2022/11/29 08:31:56;;;;;;;;;;;;;;;7.33;55.72;99764.31;4514175;31;34159;-87
2022/11/29 08:34:24;;;;;;;;;;;;;;;7.85;53.89;99757.47;4509959;31;33662;-86
2022/11/29 08:36:53;;;;;;;;;;;;;;;7.97;53.49;99763.91;4497077;31;34727;-86
2022/11/29 08:39:20;;;;;;;;;;;;;;;7.01;56.19;99774.34;4498076;31;34328;-88
2022/11/29 08:41:48;;;;;;;;;;;;;;;7.54;55.00;99770.22;4501865;31;34312;-85
2022/11/29 08:44:15;;;;;;;;;;;;;;;7.93;54.32;99761.19;4497313;31;33701;-85
2022/11/29 08:49:28;;;;;;;;;;;;;;;6.96;56.10;99780.16;4514191;31;35192;-88
2022/11/29 08:53:39;;;;;;;;;;;;;;;6.91;56.18;99773.97;4514208;31;35111;-84
2022/11/29 08:54:43;;;;;;;;;;;;;;;6.54;57.01;99773.44;4508121;31;33323;-89
2022/11/29 08:57:10;;;;;;;;;;;;;;;6.96;57.06;99772.41;4498340;31;33983;-88
2022/11/29 08:59:58;;;;;;;;;;;;;;;8.06;54.37;99758.16;4497943;31;34137;-89
2022/11/29 09:02:25;;;;;;;;;;;;;;;7.64;54.76;99765.37;4507001;31;35106;-86
2022/11/29 09:04:52;;;;;;;;;;;;;;;7.39;55.37;99766.25;4513932;31;33238;-86
2022/11/29 09:07:19;;;;;;;;;;;;;;;8.21;53.38;99763.81;4513818;31;34914;-90
2022/11/29 09:09:47;;;;;;;;;;;;;;;7.76;54.21;99769.22;4514104;31;34287;-85
2022/11/29 09:12:14;;;;;;;;;;;;;;;7.44;54.73;99764.69;4505736;31;34322;-90
2022/11/29 09:14:41;;;;;;;;;;;;;;;6.76;56.19;99771.69;4497698;31;34396;-86
2022/11/29 09:17:09;;;;;;;;;;;;;;;6.65;57.37;99767.81;4497737;31;33929;-85
2022/11/29 09:19:36;;;;;;;;;;;;;;;6.97;55.77;99761.28;4497579;31;34169;-88
2022/11/29 09:22:03;;;;;;;;;;;;;;;7.27;55.41;99759.81;4504328;31;35722;-88
2022/11/29 09:24:32;;;;;;;;;;;;;;;7.97;53.90;99757.87;4515315;31;33525;-89
2022/11/29 09:26:59;;;;;;;;;;;;;;;7.16;55.12;99758.56;4515548;31;34213;-90
2022/11/29 09:29:26;;;;;;;;;;;;;;;7.44;54.42;99749.22;4515910;31;35265;-89
2022/11/29 09:31:53;;;;;;;;;;;;;;;7.11;55.73;99765.25;4510772;31;34516;-85
2022/11/29 09:34:20;;;;;;;;;;;;;;;7.40;54.11;99757.66;4499889;31;34604;-90
2022/11/29 09:36:48;;;;;;;;;;;;;;;7.19;55.79;99766.38;4499984;31;34177;-90
2022/11/29 09:39:15;;;;;;;;;;;;;;;7.68;54.10;99754.31;4506018;31;34224;-90
2022/11/29 09:42:01;;;;;;;;;;;;;;;7.78;52.70;99753.81;4515449;31;34087;-86
2022/11/29 09:44:44;;;;;;;;;;;;;;;8.07;52.23;99757.34;4515736;31;33607;-88
2022/11/29 09:47:20;;;;;;;;;;;;;;;7.53;53.35;99755.53;4515810;31;33796;-86
2022/11/29 09:49:51;;;;;;;;;;;;;;;7.11;54.96;99764.37;4505819;31;34154;-89
2022/11/29 09:52:24;;;;;;;;;;;;;;;6.66;55.91;99765.28;4498472;31;34164;-88
2022/11/29 09:55:13;;;;;;;;;;;;;;;7.09;54.87;99756.59;4499885;31;33427;-86
2022/11/29 09:57:42;;;;;;;;;;;;;;;7.73;53.35;99738.19;4501960;31;34240;-87
2022/11/29 10:00:13;;;;;;;;;;;;;;;7.77;53.59;99739.16;4493296;31;34360;-90
2022/11/29 10:02:44;;;;;;;;;;;;;;;8.03;53.18;99742.56;4501173;31;34091;-84
2022/11/29 10:05:16;;;;;;;;;;;;;;;7.93;52.86;99735.38;4515475;31;33485;-87
2022/11/29 10:07:47;;;;;;;;;;;;;;;8.41;51.71;99730.00;4498819;31;33937;-89
2022/11/29 10:10:25;;;;;;;;;;;;;;;8.74;50.85;99732.72;4498486;31;34464;-89
2022/11/29 10:13:14;;;;;;;;;;;;;;;7.88;52.88;99724.00;4499485;31;35325;-86
2022/11/29 10:15:45;;;;;;;;;;;;;;;8.16;52.81;99726.63;4499674;31;34378;-86
2022/11/29 10:18:22;;;;;;;;;;;;;;;8.14;52.02;99720.53;4498415;31;33887;-86
2022/11/29 10:20:50;;;;;;;;;;;;;;;9.19;50.12;99717.59;4499428;31;33866;-85
2022/11/29 10:23:24;;;;;;;;;;;;;;;9.23;50.02;99709.09;4498584;31;34553;-87
2022/11/29 10:25:52;;;;;;;;;;;;;;;8.61;51.26;99718.56;4499263;31;34258;-87
2022/11/29 10:28:20;;;;;;;;;;;;;;;8.31;52.08;99712.44;4500124;31;34888;-90
2022/11/29 10:30:47;;;;;;;;;;;;;;;9.34;49.12;99708.50;4514080;31;34765;-88
2022/11/29 10:33:22;;;;;;;;;;;;;;;9.40;48.96;99708.69;4514884;31;33967;-87
2022/11/29 10:35:50;;;;;;;;;;;;;;;9.05;49.51;99708.59;4513887;31;33578;-87
2022/11/29 10:38:17;;;;;;;;;;;;;;;9.14;49.63;99710.56;4512755;31;34348;-88
2022/11/29 10:41:02;;;;;;;;;;;;;;;8.47;50.66;99719.84;4499516;31;34027;-88
2022/11/29 10:43:29;;;;;;;;;;;;;;;9.26;49.17;99710.91;4502607;31;34444;-86
2022/11/29 10:45:57;;;;;;;;;;;;;;;9.25;48.58;99711.75;4502965;31;34360;-85
2022/11/29 10:48:26;;;;;;;;;;;;;;;10.03;47.53;99708.50;4507660;31;34006;-89
2022/11/29 10:50:53;;;;;;;;;;;;;;;7.60;52.39;99719.63;4500416;31;33927;-87
2022/11/29 10:53:29;;;;;;;;;;;;;;;8.93;49.58;99721.19;4511396;31;34556;-85
2022/11/29 10:56:00;;;;;;;;;;;;;;;8.06;51.36;99716.84;4502659;31;34442;-85
2022/11/29 10:58:28;;;;;;;;;;;;;;;8.68;50.65;99715.34;4500122;31;35128;-84
2022/11/29 11:01:08;;;;;;;;;;;;;;;8.90;50.47;99715.91;4507937;31;34844;-90
2022/11/29 11:03:39;;;;;;;;;;;;;;;8.58;50.84;99713.31;4513466;31;34332;-86
2022/11/29 11:06:06;;;;;;;;;;;;;;;9.46;48.80;99703.66;4513452;31;33731;-87
2022/11/29 11:08:34;;;;;;;;;;;;;;;9.47;48.84;99695.94;4499201;31;34353;-84
2022/11/29 11:11:02;;;;;;;;;;;;;;;9.11;48.81;99700.12;4497971;31;34175;-85
2022/11/29 11:13:29;;;;;;;;;;;;;;;9.12;48.50;99697.56;4498333;31;34860;-89
2022/11/29 11:16:17;;;;;;;;;;;;;;;9.05;49.08;99699.97;4499327;31;33313;-88
2022/11/29 11:18:45;;;;;;;;;;;;;;;9.20;49.02;99701.25;4499241;31;33655;-87
2022/11/29 11:21:16;;;;;;;;;;;;;;;9.12;49.11;99702.75;4499315;31;34390;-86
2022/11/29 11:23:57;;;;;;;;;;;;;;;9.19;48.36;99701.22;4499409;31;35335;-88
2022/11/29 11:26:25;;;;;;;;;;;;;;;9.17;48.51;99700.31;4498947;31;33970;-88
2022/11/29 11:28:57;;;;;;;;;;;;;;;8.38;50.30;99712.72;4500999;31;34820;-85
2022/11/29 11:31:33;;;;;;;;;;;;;;;7.93;51.41;99706.97;4515334;31;33794;-86
2022/11/29 11:34:19;;;;;;;;;;;;;;;6.87;53.86;99717.97;4502062;31;34525;-86
2022/11/29 11:36:46;;;;;;;;;;;;;;;6.66;55.30;99724.06;4514948;31;33527;-87
2022/11/29 11:39:18;;;;;;;;;;;;;;;7.86;52.56;99710.19;4513982;31;35019;-85
2022/11/29 11:44:31;;;;;;;;;;;;;;;8.83;50.15;99709.72;4498869;31;33952;-88
2022/11/29 11:47:17;;;;;;;;;;;;;;;8.80;50.96;99714.81;4505446;31;33471;-86
2022/11/29 11:49:46;;;;;;;;;;;;;;;8.94;49.71;99715.16;4513682;31;34000;-87
2022/11/29 11:52:15;;;;;;;;;;;;;;;7.95;52.15;99713.91;4513445;31;33796;-86
2022/11/29 11:54:43;;;;;;;;;;;;;;;8.53;51.18;99718.34;4500184;31;34437;-85
2022/11/29 11:57:15;;;;;;;;;;;;;;;7.25;53.93;99722.78;4499055;31;34462;-84
2022/11/29 11:59:45;;;;;;;;;;;;;;;7.55;53.41;99717.78;4500225;31;34357;-83
2022/11/29 12:02:26;;;;;;;;;;;;;;;7.74;53.31;99715.81;4500564;31;35187;-84
2022/11/29 12:04:57;;;;;;;;;;;;;;;8.25;52.22;99711.41;4514632;31;34226;-84
2022/11/29 12:07:39;;;;;;;;;;;;;;;7.83;53.46;99716.09;4514792;31;33466;-84
2022/11/29 12:10:27;;;;;;;;;;;;;;;8.51;51.66;99717.41;4502650;31;33615;-86
2022/11/29 12:12:54;;;;;;;;;;;;;;;8.43;50.62;99713.72;4497456;31;35305;-88
2022/11/29 12:15:25;;;;;;;;;;;;;;;9.09;49.89;99705.28;4498987;31;34623;-83
2022/11/29 12:17:59;;;;;;;;;;;;;;;7.78;52.69;99710.81;4497707;31;35204;-85
2022/11/29 12:20:43;;;;;;;;;;;;;;;7.71;53.03;99713.13;4498591;31;33832;-87
2022/11/29 12:23:10;;;;;;;;;;;;;;;9.04;49.73;99703.37;4497181;31;34515;-86
2022/11/29 12:25:46;;;;;;;;;;;;;;;8.20;51.97;99702.66;4503453;31;35204;-89
2022/11/29 12:28:15;;;;;;;;;;;;;;;9.10;50.15;99699.25;4516279;31;33693;-86
2022/11/29 12:30:46;;;;;;;;;;;;;;;8.49;51.75;99697.53;4513111;31;34071;-88
2022/11/29 12:33:40;;;;;;;;;;;;;;;9.24;49.55;99697.94;4503715;31;35059;-87
2022/11/29 12:36:13;;;;;;;;;;;;;;;8.91;50.44;99699.59;4511638;31;35737;-89
2022/11/29 12:38:43;;;;;;;;;;;;;;;9.15;49.18;99697.66;4512332;31;34400;-87
2022/11/29 12:41:25;;;;;;;;;;;;;;;9.05;49.33;99697.38;4512864;31;34845;-87
2022/11/29 12:43:53;;;;;;;;;;;;;;;9.11;49.61;99689.78;4500580;31;34922;-86
2022/11/29 12:46:20;;;;;;;;;;;;;;;9.44;49.46;99690.69;4498312;31;33898;-89
2022/11/29 12:48:56;;;;;;;;;;;;;;;9.92;48.26;99689.25;4498351;31;34808;-88
2022/11/29 12:51:33;;;;;;;;;;;;;;;9.99;48.07;99681.66;4498212;31;34017;-88
2022/11/29 12:54:14;;;;;;;;;;;;;;;9.71;48.24;99689.63;4504697;31;34054;-85
2022/11/29 12:56:59;;;;;;;;;;;;;;;10.17;46.96;99688.97;4512865;31;34936;-89
2022/11/29 12:59:30;;;;;;;;;;;;;;;8.92;50.26;99686.69;4516252;31;33281;-88
2022/11/29 13:02:03;;;;;;;;;;;;;;;9.45;49.84;99681.19;4516053;31;33767;-87
2022/11/29 13:04:36;;;;;;;;;;;;;;;8.71;51.28;99674.06;4506893;31;34864;-89
2022/11/29 13:07:10;;;;;;;;;;;;;;;10.04;48.61;99683.47;4515282;31;34528;-84
2022/11/29 13:09:37;;;;;;;;;;;;;;;9.83;48.92;99676.09;4516176;31;34276;-88
2022/11/29 13:12:11;;;;;;;;;;;;;;;9.11;50.12;99685.50;4515991;31;34263;-89
2022/11/29 13:14:41;;;;;;;;;;;;;;;9.46;49.42;99682.94;4506268;31;34959;-89
2022/11/29 13:17:24;;;;;;;;;;;;;;;9.60;49.33;99685.88;4500352;31;34140;-86
2022/11/29 13:19:55;;;;;;;;;;;;;;;9.58;49.23;99693.59;4498805;31;33310;-89
2022/11/29 13:22:22;;;;;;;;;;;;;;;9.33;49.99;99686.94;4498699;31;34791;-85
2022/11/29 13:24:50;;;;;;;;;;;;;;;10.09;48.44;99690.53;4509854;31;35789;-87
2022/11/29 13:27:28;;;;;;;;;;;;;;;9.94;48.98;99695.34;4503739;31;34699;-89
2022/11/29 13:29:57;;;;;;;;;;;;;;;9.98;48.79;99689.41;4501568;31;33457;-88
2022/11/29 13:32:33;;;;;;;;;;;;;;;8.38;52.20;99694.63;4498441;31;34928;-86
2022/11/29 13:35:06;;;;;;;;;;;;;;;8.44;52.75;99694.78;4500081;31;35264;-86